createdAt,value
2023-05-10T00:02:40.140Z,92225.22
2023-05-10T00:05:23.260Z,92213.16
2023-05-10T00:08:06.369Z,92216.88
2023-05-10T00:10:49.489Z,92221.88
2023-05-10T00:13:33.746Z,92225.59
2023-05-10T00:16:16.677Z,92224.59
2023-05-10T00:18:59.625Z,92245.25
2023-05-10T00:21:42.505Z,92248.81
2023-05-10T00:24:25.451Z,92263.50
2023-05-10T00:27:08.351Z,92259.69
2023-05-10T00:29:52.728Z,92258.25
2023-05-10T00:32:35.677Z,92245.09
2023-05-10T00:35:18.720Z,92242.41
2023-05-10T00:38:01.647Z,92253.69
2023-05-10T00:40:45.043Z,92253.00
2023-05-10T00:43:35.478Z,92257.97
2023-05-10T00:46:20.321Z,92254.78
2023-05-10T00:49:03.579Z,92252.66
2023-05-10T00:51:46.675Z,92250.50
2023-05-10T00:54:29.764Z,92250.94
2023-05-10T00:57:13.224Z,92233.06
2023-05-10T00:59:56.195Z,92225.06
2023-05-10T01:02:40.723Z,92241.50
2023-05-10T01:05:23.990Z,92238.94
2023-05-10T01:08:07.774Z,92239.31
2023-05-10T01:10:51.096Z,92244.81
2023-05-10T01:13:37.227Z,92245.00
2023-05-10T01:16:20.488Z,92245.00
2023-05-10T01:19:20.014Z,92259.03
2023-05-10T01:22:12.400Z,92247.94
2023-05-10T01:25:25.798Z,92244.38
2023-05-10T01:28:33.350Z,92236.63
2023-05-10T01:31:30.799Z,92250.16
2023-05-10T01:34:21.944Z,92227.31
2023-05-10T01:37:11.097Z,92240.38
2023-05-10T01:40:00.386Z,92227.66
2023-05-10T01:42:49.804Z,92232.00
2023-05-10T01:45:39.125Z,92224.63
2023-05-10T01:48:23.064Z,92231.78
2023-05-10T01:51:08.857Z,92233.34
2023-05-10T01:53:56.282Z,92247.84
2023-05-10T01:56:41.476Z,92244.28
2023-05-10T01:59:26.274Z,92240.72
2023-05-10T02:02:12.778Z,92237.34
2023-05-10T02:04:57.693Z,92233.81
2023-05-10T02:07:43.020Z,92239.75
2023-05-10T02:10:26.127Z,92238.16
2023-05-10T02:13:10.273Z,92241.53
2023-05-10T02:15:55.281Z,92239.94
2023-05-10T02:18:38.427Z,92236.94
2023-05-10T02:21:22.574Z,92243.84
2023-05-10T02:24:09.674Z,92241.44
2023-05-10T02:26:55.771Z,92245.16
2023-05-10T02:29:39.228Z,92247.13
2023-05-10T02:32:24.617Z,92244.72
2023-05-10T02:35:09.530Z,92246.69
2023-05-10T02:37:52.803Z,92245.91
2023-05-10T02:40:39.042Z,92250.44
2023-05-10T02:43:26.017Z,92249.59
2023-05-10T02:46:09.107Z,92243.81
2023-05-10T02:48:52.435Z,92248.19
2023-05-10T02:51:38.351Z,92252.38
2023-05-10T02:54:23.367Z,92251.56
2023-05-10T02:57:09.234Z,92251.56
2023-05-10T02:59:52.527Z,92252.56
2023-05-10T03:02:35.549Z,92254.13
2023-05-10T03:05:18.896Z,92259.47
2023-05-10T03:08:04.959Z,92249.16
2023-05-10T03:11:08.851Z,92249.34
2023-05-10T03:14:06.430Z,92252.56
2023-05-10T03:16:56.473Z,92253.34
2023-05-10T03:19:47.783Z,92255.94
2023-05-10T03:22:34.308Z,92253.16
2023-05-10T03:25:18.952Z,92253.97
2023-05-10T03:28:03.830Z,92252.19
2023-05-10T03:30:49.204Z,92255.56
2023-05-10T03:33:32.851Z,92253.78
2023-05-10T03:36:17.041Z,92245.28
2023-05-10T03:39:00.015Z,92247.03
2023-05-10T03:41:43.679Z,92248.00
2023-05-10T03:44:26.762Z,92242.69
2023-05-10T03:47:11.159Z,92251.41
2023-05-10T03:49:54.212Z,92253.00
2023-05-10T03:52:37.482Z,92252.03
2023-05-10T03:55:20.414Z,92241.72
2023-05-10T03:58:03.493Z,92253.78
2023-05-10T04:00:46.595Z,92250.44
2023-05-10T04:03:32.256Z,92253.00
2023-05-10T04:06:16.015Z,92257.19
2023-05-10T04:09:00.861Z,92252.81
2023-05-10T04:11:43.628Z,92255.38
2023-05-10T04:14:26.704Z,92257.97
2023-05-10T04:17:09.657Z,92253.78
2023-05-10T04:19:55.742Z,92254.59
2023-05-10T04:22:39.527Z,92264.72
2023-05-10T04:25:22.927Z,92263.94
2023-05-10T04:28:08.017Z,92266.88
2023-05-10T04:30:51.785Z,92261.72
2023-05-10T04:33:35.505Z,92257.97
2023-05-10T04:36:19.873Z,92259.56
2023-05-10T04:39:03.781Z,92262.78
2023-05-10T04:41:46.821Z,92258.44
2023-05-10T04:44:29.848Z,92258.25
2023-05-10T04:47:14.197Z,92258.25
2023-05-10T04:49:57.198Z,92262.44
2023-05-10T04:52:41.497Z,92256.28
2023-05-10T04:55:24.771Z,92259.31
2023-05-10T04:58:08.382Z,92262.72
2023-05-10T05:00:51.576Z,92262.50
2023-05-10T05:03:34.689Z,92257.78
2023-05-10T05:06:18.081Z,92267.94
2023-05-10T05:09:02.342Z,92261.81
2023-05-10T05:11:45.566Z,92269.38
2023-05-10T05:14:28.503Z,92262.25
2023-05-10T05:17:11.801Z,92265.47
2023-05-10T05:19:55.091Z,92267.06
2023-05-10T05:22:38.853Z,92269.25
2023-05-10T05:25:24.104Z,92263.94
2023-05-10T05:28:07.026Z,92264.56
2023-05-10T05:30:50.381Z,92266.78
2023-05-10T05:33:33.855Z,92270.78
2023-05-10T05:36:16.800Z,92268.00
2023-05-10T05:39:00.139Z,92275.41
2023-05-10T05:41:45.098Z,92276.22
2023-05-10T05:44:29.845Z,92278.63
2023-05-10T05:47:13.203Z,92280.03
2023-05-10T05:49:56.774Z,92289.38
2023-05-10T05:52:40.113Z,92279.88
2023-05-10T05:55:23.048Z,92287.44
2023-05-10T05:58:07.428Z,92285.66
2023-05-10T06:00:50.553Z,92289.66
2023-05-10T06:03:33.668Z,92286.09
2023-05-10T06:06:16.752Z,92287.69
2023-05-10T06:08:59.673Z,92289.47
2023-05-10T06:11:42.679Z,92294.03
2023-05-10T06:14:26.962Z,92290.81
2023-05-10T06:17:09.974Z,92296.34
2023-05-10T06:19:52.962Z,92293.91
2023-05-10T06:22:36.334Z,92290.56
2023-05-10T06:25:19.846Z,92293.31
2023-05-10T06:28:03.066Z,92293.31
2023-05-10T06:30:48.911Z,92300.25
2023-05-10T06:33:32.188Z,92296.84
2023-05-10T06:36:16.358Z,92305.22
2023-05-10T06:38:59.339Z,92298.09
2023-05-10T06:41:42.920Z,92308.88
2023-05-10T06:44:25.858Z,92312.25
2023-05-10T06:47:10.556Z,92311.09
2023-05-10T06:49:53.338Z,92311.72
2023-05-10T06:52:36.353Z,92307.78
2023-05-10T06:55:19.848Z,92309.59
2023-05-10T06:58:03.105Z,92317.13
2023-05-10T07:00:47.793Z,92314.56
2023-05-10T07:03:32.017Z,92315.72
2023-05-10T07:06:29.447Z,92317.34
2023-05-10T07:09:16.801Z,92314.13
2023-05-10T07:12:00.121Z,92317.84
2023-05-10T07:14:43.141Z,92318.81
2023-05-10T07:17:26.249Z,92318.03
2023-05-10T07:20:12.162Z,92322.56
2023-05-10T07:22:55.091Z,92328.72
2023-05-10T07:25:38.687Z,92326.47
2023-05-10T07:28:22.152Z,92332.03
2023-05-10T07:31:05.181Z,92332.34
2023-05-10T07:33:48.354Z,92331.72
2023-05-10T07:36:33.458Z,92332.06
2023-05-10T07:39:24.826Z,92327.25
2023-05-10T07:42:10.402Z,92327.59
2023-05-10T07:44:53.394Z,92327.97
2023-05-10T07:47:36.333Z,92324.78
2023-05-10T07:50:19.344Z,92331.69
2023-05-10T07:53:04.228Z,92328.03
2023-05-10T07:55:52.664Z,92327.41
2023-05-10T07:58:35.641Z,92330.81
2023-05-10T08:01:18.685Z,92334.81
2023-05-10T08:04:02.944Z,92337.03
2023-05-10T08:06:46.108Z,92347.97
2023-05-10T08:09:30.416Z,92347.97
2023-05-10T08:12:13.545Z,92345.41
2023-05-10T08:14:56.521Z,92351.34
2023-05-10T08:17:39.642Z,92351.00
2023-05-10T08:20:22.856Z,92353.38
2023-05-10T08:23:05.786Z,92355.81
2023-05-10T08:25:50.277Z,92355.63
2023-05-10T08:28:33.627Z,92354.00
2023-05-10T08:31:17.143Z,92354.84
2023-05-10T08:34:00.429Z,92353.91
2023-05-10T08:36:43.315Z,92360.25
2023-05-10T08:39:30.399Z,92369.75
2023-05-10T08:42:18.904Z,92369.41
2023-05-10T08:45:03.139Z,92369.06
2023-05-10T08:47:48.067Z,92375.00
2023-05-10T08:50:32.706Z,92379.81
2023-05-10T08:53:17.180Z,92377.84
2023-05-10T08:56:00.647Z,92380.09
2023-05-10T08:58:45.113Z,92382.84
2023-05-10T09:01:29.088Z,92378.84
2023-05-10T09:04:13.117Z,92389.97
2023-05-10T09:06:56.791Z,92382.03
2023-05-10T09:09:39.765Z,92383.00
2023-05-10T09:12:22.953Z,92382.03
2023-05-10T09:15:09.166Z,92383.47
2023-05-10T09:17:52.364Z,92392.28
2023-05-10T09:20:35.479Z,92388.22
2023-05-10T09:23:18.484Z,92397.03
2023-05-10T09:26:05.534Z,92390.28
2023-05-10T09:28:57.105Z,92397.22
2023-05-10T09:31:51.978Z,92400.25
2023-05-10T09:34:35.807Z,92395.72
2023-05-10T09:37:18.778Z,92401.13
2023-05-10T09:40:01.683Z,92400.44
2023-05-10T09:42:52.505Z,92399.34
2023-05-10T09:45:38.976Z,92401.22
2023-05-10T09:48:26.157Z,92397.13
2023-05-10T09:51:09.078Z,92397.22
2023-05-10T09:54:11.625Z,92397.47
2023-05-10T09:56:54.500Z,92393.72
2023-05-10T09:59:37.662Z,92400.50
2023-05-10T10:02:20.797Z,92399.16
2023-05-10T10:05:06.226Z,92399.94
2023-05-10T10:07:52.208Z,92392.03
2023-05-10T10:10:35.968Z,92392.03
2023-05-10T10:13:19.094Z,92390.25
2023-05-10T10:16:02.076Z,92399.25
2023-05-10T10:18:46.065Z,92397.91
2023-05-10T10:21:30.834Z,92400.75
2023-05-10T10:24:13.537Z,92398.94
2023-05-10T10:27:05.435Z,92390.22
2023-05-10T10:29:58.296Z,92395.81
2023-05-10T10:33:20.632Z,92398.66
2023-05-10T10:36:10.722Z,92394.56
2023-05-10T10:39:01.668Z,92398.38
2023-05-10T10:41:52.504Z,92393.84
2023-05-10T10:44:39.265Z,92396.22
2023-05-10T10:47:28.445Z,92400.66
2023-05-10T10:50:13.888Z,92392.56
2023-05-10T10:53:12.941Z,92390.41
2023-05-10T10:56:10.294Z,92397.41
2023-05-10T10:58:54.709Z,92396.63
2023-05-10T11:01:38.017Z,92398.22
2023-05-10T11:04:22.075Z,92397.22
2023-05-10T11:07:18.856Z,92399.63
2023-05-10T11:10:06.819Z,92402.03
2023-05-10T11:13:03.504Z,92404.44
2023-05-10T11:15:50.751Z,92408.63
2023-05-10T11:18:33.814Z,92404.63
2023-05-10T11:21:17.703Z,92412.91
2023-05-10T11:24:02.391Z,92408.91
2023-05-10T11:26:45.585Z,92411.88
2023-05-10T11:29:30.240Z,92413.03
2023-05-10T11:32:14.098Z,92417.38
2023-05-10T11:34:57.025Z,92410.66
2023-05-10T11:37:42.419Z,92409.84
2023-05-10T11:40:25.882Z,92422.41
2023-05-10T11:43:12.226Z,92409.72
2023-05-10T11:45:57.102Z,92405.78
2023-05-10T11:48:40.952Z,92410.22
2023-05-10T11:51:25.642Z,92401.13
2023-05-10T11:54:10.461Z,92415.44
2023-05-10T11:56:54.271Z,92414.50
2023-05-10T11:59:38.327Z,92407.97
2023-05-10T12:02:23.390Z,92412.97
2023-05-10T12:05:07.940Z,92416.16
2023-05-10T12:07:50.944Z,92409.03
2023-05-10T12:10:36.763Z,92416.22
2023-05-10T12:13:21.559Z,92414.69
2023-05-10T12:16:14.550Z,92412.53
2023-05-10T12:19:01.782Z,92419.91
2023-05-10T12:21:46.395Z,92421.50
2023-05-10T12:24:29.303Z,92422.94
2023-05-10T12:27:13.410Z,92426.94
2023-05-10T12:29:56.795Z,92426.72
2023-05-10T12:32:41.776Z,92428.72
2023-05-10T12:35:25.942Z,92422.50
2023-05-10T12:38:31.890Z,92423.06
2023-05-10T12:41:17.119Z,92423.63
2023-05-10T12:44:00.215Z,92427.38
2023-05-10T12:46:43.227Z,92434.56
2023-05-10T12:49:26.147Z,92432.00
2023-05-10T12:52:11.279Z,92435.19
2023-05-10T12:54:54.492Z,92435.72
2023-05-10T12:57:37.459Z,92424.41
2023-05-10T13:00:21.076Z,92427.25
2023-05-10T13:03:04.121Z,92427.50
2023-05-10T13:05:47.240Z,92428.28
2023-05-10T13:08:34.582Z,92428.13
2023-05-10T13:11:18.305Z,92423.34
2023-05-10T13:14:01.486Z,92429.88
2023-05-10T13:16:45.057Z,92417.94
2023-05-10T13:19:28.989Z,92423.31
2023-05-10T13:22:12.023Z,92423.31
2023-05-10T13:24:56.293Z,92429.72
2023-05-10T13:27:39.495Z,92425.94
2023-05-10T13:30:22.572Z,92418.44
2023-05-10T13:33:07.323Z,92418.44
2023-05-10T13:35:50.309Z,92414.41
2023-05-10T13:38:34.033Z,92411.22
2023-05-10T13:41:18.671Z,92411.25
2023-05-10T13:44:01.615Z,92407.75
2023-05-10T13:46:44.648Z,92402.06
2023-05-10T13:49:27.891Z,92412.09
2023-05-10T13:52:11.313Z,92411.88
2023-05-10T13:54:55.967Z,92406.13
2023-05-10T13:57:40.140Z,92411.97
2023-05-10T14:00:23.769Z,92407.28
2023-05-10T14:03:07.553Z,92407.31
2023-05-10T14:05:50.538Z,92407.72
2023-05-10T14:08:33.574Z,92407.94
2023-05-10T14:11:16.494Z,92412.75
2023-05-10T14:14:00.896Z,92408.97
2023-05-10T14:16:45.188Z,92407.56
2023-05-10T14:19:28.968Z,92405.97
2023-05-10T14:22:11.945Z,92414.16
2023-05-10T14:24:54.887Z,92408.38
2023-05-10T14:27:38.122Z,92411.03
2023-05-10T14:30:22.780Z,92413.25
2023-05-10T14:33:05.835Z,92408.69
2023-05-10T14:35:49.405Z,92409.09
2023-05-10T14:38:33.022Z,92407.91
2023-05-10T14:41:17.242Z,92406.31
2023-05-10T14:44:00.205Z,92399.94
2023-05-10T14:46:45.308Z,92406.53
2023-05-10T14:49:28.286Z,92400.16
2023-05-10T14:52:13.194Z,92405.34
2023-05-10T14:54:56.233Z,92405.91
2023-05-10T14:57:39.184Z,92407.31
2023-05-10T15:00:23.183Z,92405.50
2023-05-10T15:03:07.859Z,92407.09
2023-05-10T15:05:50.977Z,92411.28
2023-05-10T15:08:34.072Z,92407.91
2023-05-10T15:11:16.992Z,92412.50
2023-05-10T15:13:59.972Z,92411.06
2023-05-10T15:16:43.029Z,92419.25
2023-05-10T15:19:27.419Z,92416.84
2023-05-10T15:22:11.294Z,92414.78
2023-05-10T15:24:54.275Z,92416.38
2023-05-10T15:27:37.493Z,92417.13
2023-05-10T15:30:20.982Z,92420.69
2023-05-10T15:33:04.061Z,92412.31
2023-05-10T15:35:48.409Z,92423.50
2023-05-10T15:38:32.547Z,92422.66
2023-05-10T15:41:15.947Z,92421.69
2023-05-10T15:44:00.660Z,92420.69
2023-05-10T15:46:43.404Z,92421.06
2023-05-10T15:49:26.803Z,92424.06
2023-05-10T15:52:11.372Z,92425.44
2023-05-10T15:54:54.339Z,92422.44
2023-05-10T15:57:37.972Z,92424.59
2023-05-10T16:00:22.349Z,92420.00
2023-05-10T16:03:05.333Z,92426.00
2023-05-10T16:05:49.347Z,92428.97
2023-05-10T16:08:33.910Z,92428.16
2023-05-10T16:11:16.883Z,92422.38
2023-05-10T16:13:59.865Z,92431.94
2023-05-10T16:16:43.193Z,92429.34
2023-05-10T16:19:29.013Z,92429.72
2023-05-10T16:22:13.023Z,92429.91
2023-05-10T16:24:58.175Z,92433.50
2023-05-10T16:27:43.139Z,92427.91
2023-05-10T16:30:27.457Z,92436.03
2023-05-10T16:33:10.548Z,92431.84
2023-05-10T16:35:53.534Z,92431.03
2023-05-10T16:38:36.485Z,92433.63
2023-05-10T16:41:21.392Z,92434.63
2023-05-10T16:44:04.790Z,92437.59
2023-05-10T16:46:48.308Z,92432.59
2023-05-10T16:49:32.128Z,92438.97
2023-05-10T16:52:15.043Z,92438.91
2023-05-10T16:54:58.184Z,92441.25
2023-05-10T16:57:42.488Z,92442.81
2023-05-10T17:00:26.249Z,92446.56
2023-05-10T17:03:09.267Z,92450.50
2023-05-10T17:05:52.381Z,92451.25
2023-05-10T17:08:35.685Z,92451.81
2023-05-10T17:11:19.977Z,92450.41
2023-05-10T17:14:04.393Z,92459.69
2023-05-10T17:16:49.401Z,92458.28
2023-05-10T17:19:32.332Z,92456.25
2023-05-10T17:22:15.373Z,92464.38
2023-05-10T17:24:58.387Z,92456.56
2023-05-10T17:27:41.445Z,92469.84
2023-05-10T17:30:28.274Z,92463.78
2023-05-10T17:33:11.314Z,92468.88
2023-05-10T17:35:54.373Z,92470.78
2023-05-10T17:38:37.453Z,92466.97
2023-05-10T17:41:20.413Z,92475.69
2023-05-10T17:44:03.280Z,92480.59
2023-05-10T17:46:47.713Z,92476.41
2023-05-10T17:49:30.680Z,92478.38
2023-05-10T17:52:13.672Z,92479.97
2023-05-10T17:54:56.669Z,92474.00
2023-05-10T17:57:39.606Z,92475.78
2023-05-10T18:00:23.051Z,92473.19
2023-05-10T18:03:07.545Z,92476.59
2023-05-10T18:05:51.366Z,92483.38
2023-05-10T18:08:34.411Z,92475.78
2023-05-10T18:11:17.724Z,92482.75
2023-05-10T18:14:00.703Z,92488.06
2023-05-10T18:16:44.181Z,92490.22
2023-05-10T18:19:28.609Z,92481.84
2023-05-10T18:22:11.580Z,92484.44
2023-05-10T18:24:54.682Z,92489.97
2023-05-10T18:27:37.667Z,92495.66
2023-05-10T18:30:20.814Z,92494.25
2023-05-10T18:33:04.450Z,92495.50
2023-05-10T18:35:48.983Z,92498.88
2023-05-10T18:38:32.045Z,92492.94
2023-05-10T18:41:15.109Z,92495.50
2023-05-10T18:43:58.406Z,92493.72
2023-05-10T18:46:42.356Z,92500.84
2023-05-10T18:49:26.659Z,92498.81
2023-05-10T18:52:11.040Z,92506.13
2023-05-10T18:54:53.993Z,92509.50
2023-05-10T18:57:41.664Z,92502.38
2023-05-10T19:00:25.197Z,92502.38
2023-05-10T19:03:08.417Z,92504.66
2023-05-10T19:05:51.389Z,92508.44
2023-05-10T19:08:35.782Z,92505.84
2023-05-10T19:11:18.636Z,92509.84
2023-05-10T19:14:02.797Z,92517.97
2023-05-10T19:16:46.403Z,92514.41
2023-05-10T19:19:31.343Z,92510.81
2023-05-10T19:22:14.418Z,92513.88
2023-05-10T19:24:58.938Z,92519.19
2023-05-10T19:27:41.840Z,92526.50
2023-05-10T19:30:26.414Z,92518.31
2023-05-10T19:33:10.222Z,92513.22
2023-05-10T19:35:55.488Z,92515.03
2023-05-10T19:38:39.171Z,92516.53
2023-05-10T19:41:23.530Z,92513.69
2023-05-10T19:44:07.483Z,92510.81
2023-05-10T19:46:50.381Z,92523.81
2023-05-10T19:49:33.470Z,92521.03
2023-05-10T19:52:16.807Z,92517.56
2023-05-10T19:54:59.810Z,92521.28
2023-05-10T19:57:44.180Z,92518.09
2023-05-10T20:00:27.754Z,92519.44
2023-05-10T20:03:11.212Z,92517.53
2023-05-10T20:05:54.265Z,92520.31
2023-05-10T20:08:37.189Z,92520.75
2023-05-10T20:11:20.444Z,92519.94
2023-05-10T20:14:05.204Z,92521.38
2023-05-10T20:16:47.988Z,92523.00
2023-05-10T20:19:30.951Z,92522.00
2023-05-10T20:22:14.080Z,92520.22
2023-05-10T20:24:58.556Z,92522.66
2023-05-10T20:27:42.106Z,92527.19
2023-05-10T20:30:26.439Z,92527.97
2023-05-10T20:33:09.438Z,92529.91
2023-05-10T20:35:52.587Z,92528.50
2023-05-10T20:38:35.514Z,92530.63
2023-05-10T20:41:18.504Z,92527.41
2023-05-10T20:44:01.575Z,92528.53
2023-05-10T20:46:45.888Z,92529.91
2023-05-10T20:49:29.463Z,92525.72
2023-05-10T20:52:12.413Z,92530.53
2023-05-10T20:54:55.410Z,92528.72
2023-05-10T20:57:38.278Z,92527.94
2023-05-10T21:00:21.884Z,92533.09
2023-05-10T21:03:06.406Z,92528.09
2023-05-10T21:05:49.391Z,92533.44
2023-05-10T21:08:32.451Z,92527.03
2023-05-10T21:11:15.419Z,92523.66
2023-05-10T21:13:58.619Z,92520.25
2023-05-10T21:16:41.857Z,92522.06
2023-05-10T21:19:26.230Z,92517.50
2023-05-10T21:22:09.287Z,92523.03
2023-05-10T21:24:52.461Z,92521.41
2023-05-10T21:27:35.494Z,92520.59
2023-05-10T21:30:18.723Z,92525.75
2023-05-10T21:33:02.809Z,92520.78
2023-05-10T21:35:47.165Z,92520.94
2023-05-10T21:38:30.228Z,92520.16
2023-05-10T21:41:13.141Z,92515.19
2023-05-10T21:43:56.370Z,92517.75
2023-05-10T21:46:39.263Z,92522.91
2023-05-10T21:49:22.163Z,92521.28
2023-05-10T21:52:07.345Z,92521.63
2023-05-10T21:54:50.321Z,92521.16
2023-05-10T21:57:33.537Z,92522.16
2023-05-10T22:00:17.144Z,92524.72
2023-05-10T22:03:00.347Z,92521.16
2023-05-10T22:05:43.373Z,92522.16
2023-05-10T22:08:27.685Z,92525.50
2023-05-10T22:11:10.704Z,92524.72
2023-05-10T22:13:53.596Z,92525.50
2023-05-10T22:16:36.812Z,92526.47
2023-05-10T22:19:20.473Z,92522.94
2023-05-10T22:22:03.408Z,92529.06
2023-05-10T22:24:47.704Z,92521.31
2023-05-10T22:27:30.625Z,92526.34
2023-05-10T22:30:13.753Z,92523.13
2023-05-10T22:32:58.100Z,92524.88
2023-05-10T22:35:41.155Z,92517.31
2023-05-10T22:38:24.112Z,92534.41
2023-05-10T22:41:08.481Z,92520.88
2023-05-10T22:43:51.414Z,92528.78
2023-05-10T22:46:34.540Z,92535.91
2023-05-10T22:49:17.502Z,92526.38
2023-05-10T22:52:00.444Z,92536.50
2023-05-10T22:54:44.507Z,92533.13
2023-05-10T22:57:28.916Z,92525.59
2023-05-10T23:00:13.223Z,92530.75
2023-05-10T23:02:56.389Z,92526.72
2023-05-10T23:05:39.368Z,92534.44
2023-05-10T23:08:22.446Z,92530.91
2023-05-10T23:11:05.409Z,92529.94
2023-05-10T23:13:50.595Z,92533.47
2023-05-10T23:16:33.599Z,92524.31
2023-05-10T23:19:16.671Z,92529.28
2023-05-10T23:21:59.852Z,92528.50
2023-05-10T23:24:42.811Z,92524.13
2023-05-10T23:27:30.345Z,92530.91
2023-05-10T23:30:15.091Z,92525.75
2023-05-10T23:32:57.876Z,92523.34
2023-05-10T23:35:40.918Z,92529.28
2023-05-10T23:38:23.829Z,92522.72
2023-05-10T23:41:06.766Z,92526.25
2023-05-10T23:43:49.654Z,92519.50
2023-05-10T23:46:33.931Z,92524.31
2023-05-10T23:49:17.314Z,92515.31
2023-05-10T23:52:00.521Z,92516.28
2023-05-10T23:54:45.314Z,92516.28
2023-05-10T23:57:28.924Z,92518.88
